createdAt,value
2022-12-28T00:02:19.683Z,-68
2022-12-28T00:04:47.515Z,-68
2022-12-28T00:07:15.294Z,-68
2022-12-28T00:09:43.116Z,-67
2022-12-28T00:12:11.048Z,-68
2022-12-28T00:14:40.197Z,-78
2022-12-28T00:17:08.099Z,-78
2022-12-28T00:19:35.879Z,-78
2022-12-28T00:22:03.930Z,-78
2022-12-28T00:24:32.132Z,-78
2022-12-28T00:26:59.900Z,-78
2022-12-28T00:29:27.659Z,-78
2022-12-28T00:31:55.410Z,-78
2022-12-28T00:34:23.887Z,-77
2022-12-28T00:37:10.916Z,-77
2022-12-28T00:39:39.427Z,-78
2022-12-28T00:42:07.431Z,-79
2022-12-28T00:44:35.246Z,-79
2022-12-28T00:47:03.054Z,-77
2022-12-28T00:49:30.920Z,-77
2022-12-28T00:51:58.696Z,-77
2022-12-28T00:54:26.912Z,-77
2022-12-28T00:56:54.786Z,-77
2022-12-28T00:59:23.998Z,-77
2022-12-28T01:01:51.961Z,-77
2022-12-28T01:04:20.090Z,-77
2022-12-28T01:06:47.977Z,-77
2022-12-28T01:09:15.729Z,-77
2022-12-28T01:11:43.519Z,-77
2022-12-28T01:14:11.313Z,-77
2022-12-28T01:16:39.140Z,-77
2022-12-28T01:19:07.139Z,-77
2022-12-28T01:21:34.876Z,-77
2022-12-28T01:24:02.679Z,-78
2022-12-28T01:26:30.419Z,-78
2022-12-28T01:28:58.277Z,-78
2022-12-28T01:31:26.247Z,-78
2022-12-28T01:33:54.203Z,-78
2022-12-28T01:36:21.997Z,-78
2022-12-28T01:38:49.944Z,-79
2022-12-28T01:41:17.739Z,-79
2022-12-28T01:43:45.544Z,-78
2022-12-28T01:46:13.353Z,-78
2022-12-28T01:48:41.142Z,-78
2022-12-28T01:51:08.998Z,-78
2022-12-28T01:53:36.927Z,-78
2022-12-28T01:56:04.842Z,-78
2022-12-28T01:58:32.611Z,-78
2022-12-28T02:39:10.569Z,-66
2022-12-28T02:41:38.409Z,-66
2022-12-28T02:44:06.224Z,-66
2022-12-28T02:46:51.534Z,-66
2022-12-28T02:49:37.044Z,-66
2022-12-28T02:52:04.816Z,-66
2022-12-28T02:54:50.271Z,-66
2022-12-28T02:57:17.999Z,-66
2022-12-28T02:59:45.787Z,-66
2022-12-28T03:02:13.687Z,-66
2022-12-28T03:04:41.782Z,-66
2022-12-28T03:07:26.941Z,-66
2022-12-28T03:09:54.750Z,-66
2022-12-28T03:12:23.631Z,-66
2022-12-28T03:14:53.503Z,-66
2022-12-28T03:17:38.650Z,-66
2022-12-28T03:20:24.084Z,-66
2022-12-28T03:23:09.338Z,-66
2022-12-28T03:25:54.835Z,-66
2022-12-28T03:28:39.936Z,-66
2022-12-28T03:31:07.959Z,-66
2022-12-28T03:33:35.844Z,-66
2022-12-28T03:36:03.751Z,-66
2022-12-28T03:38:31.729Z,-66
2022-12-28T03:40:59.539Z,-66
2022-12-28T03:43:41.671Z,-66
2022-12-28T03:46:09.524Z,-66
2022-12-28T03:48:37.597Z,-66
2022-12-28T03:51:05.382Z,-66
2022-12-28T03:53:33.156Z,-66
2022-12-28T03:56:00.932Z,-66
2022-12-28T03:58:28.794Z,-66
2022-12-28T04:00:56.611Z,-66
2022-12-28T04:03:24.537Z,-66
2022-12-28T04:05:52.362Z,-66
2022-12-28T04:08:20.187Z,-66
2022-12-28T04:10:48.075Z,-66
2022-12-28T04:13:15.817Z,-66
2022-12-28T04:15:43.793Z,-66
2022-12-28T04:18:11.657Z,-66
2022-12-28T04:20:39.402Z,-66
2022-12-28T04:23:07.203Z,-66
2022-12-28T04:25:34.975Z,-66
2022-12-28T04:28:02.793Z,-66
2022-12-28T04:30:30.546Z,-66
2022-12-28T04:32:58.344Z,-66
2022-12-28T04:35:26.092Z,-66
2022-12-28T04:37:53.841Z,-66
2022-12-28T04:40:21.670Z,-66
2022-12-28T04:42:49.477Z,-66
2022-12-28T04:45:21.955Z,-66
2022-12-28T04:47:50.270Z,-66
2022-12-28T04:50:17.993Z,-66
2022-12-28T04:52:45.795Z,-66
2022-12-28T04:55:32.091Z,-66
2022-12-28T04:58:01.316Z,-66
2022-12-28T05:00:29.192Z,-66
2022-12-28T05:02:57.034Z,-66
2022-12-28T05:05:24.842Z,-66
2022-12-28T05:07:52.716Z,-66
2022-12-28T05:10:20.481Z,-66
2022-12-28T05:12:48.307Z,-66
2022-12-28T05:15:16.080Z,-66
2022-12-28T05:17:43.870Z,-66
2022-12-28T05:20:11.788Z,-67
2022-12-28T05:22:41.188Z,-66
2022-12-28T05:25:09.038Z,-66
2022-12-28T05:27:36.819Z,-66
2022-12-28T05:30:04.606Z,-66
2022-12-28T05:32:32.428Z,-66
2022-12-28T05:35:00.245Z,-66
2022-12-28T05:37:27.992Z,-67
2022-12-28T05:39:56.642Z,-66
2022-12-28T05:42:24.585Z,-66
2022-12-28T05:44:52.462Z,-66
2022-12-28T05:47:20.208Z,-67
2022-12-28T05:49:48.658Z,-66
2022-12-28T05:52:16.458Z,-66
2022-12-28T05:54:44.362Z,-66
2022-12-28T05:57:12.160Z,-66
2022-12-28T05:59:39.976Z,-66
2022-12-28T06:02:08.198Z,-66
2022-12-28T06:04:36.105Z,-66
2022-12-28T06:07:03.985Z,-66
2022-12-28T06:09:32.360Z,-66
2022-12-28T06:12:00.138Z,-66
2022-12-28T06:14:27.899Z,-70
2022-12-28T06:16:55.700Z,-67
2022-12-28T06:19:23.451Z,-68
2022-12-28T06:21:51.217Z,-68
2022-12-28T06:24:19.204Z,-67
2022-12-28T06:26:47.006Z,-68
2022-12-28T06:29:14.916Z,-68
2022-12-28T06:31:42.869Z,-68
2022-12-28T06:34:10.889Z,-69
2022-12-28T06:36:38.658Z,-69
2022-12-28T06:39:06.472Z,-68
2022-12-28T06:41:34.265Z,-68
2022-12-28T06:44:02.104Z,-67
2022-12-28T06:46:29.868Z,-68
2022-12-28T06:48:57.671Z,-68
2022-12-28T06:51:25.486Z,-69
2022-12-28T06:53:53.230Z,-69
2022-12-28T06:56:21.006Z,-68
2022-12-28T06:58:53.446Z,-68
2022-12-28T07:01:23.554Z,-68
2022-12-28T07:03:51.471Z,-68
2022-12-28T07:06:19.264Z,-68
2022-12-28T07:08:47.184Z,-67
2022-12-28T07:11:14.928Z,-68
2022-12-28T07:13:42.710Z,-68
2022-12-28T07:16:10.455Z,-68
2022-12-28T07:18:38.893Z,-68
2022-12-28T07:21:06.671Z,-68
2022-12-28T07:23:34.405Z,-68
2022-12-28T07:26:02.288Z,-67
2022-12-28T07:28:30.045Z,-67
2022-12-28T07:30:57.842Z,-67
2022-12-28T07:33:25.666Z,-68
2022-12-28T07:35:53.520Z,-68
2022-12-28T07:38:21.837Z,-68
2022-12-28T07:40:49.618Z,-68
2022-12-28T07:43:17.409Z,-68
2022-12-28T07:45:45.262Z,-68
2022-12-28T07:48:13.080Z,-69
2022-12-28T07:50:40.815Z,-67
2022-12-28T07:53:08.618Z,-68
2022-12-28T07:55:36.371Z,-68
2022-12-28T07:58:04.138Z,-69
2022-12-28T08:00:32.030Z,-68
2022-12-28T08:03:02.829Z,-68
2022-12-28T08:05:30.655Z,-67
2022-12-28T08:08:03.400Z,-68
2022-12-28T08:10:31.570Z,-68
2022-12-28T08:12:59.344Z,-67
2022-12-28T08:15:27.252Z,-68
2022-12-28T08:17:55.057Z,-68
2022-12-28T08:20:22.842Z,-68
2022-12-28T08:22:50.613Z,-69
2022-12-28T08:25:18.354Z,-68
2022-12-28T08:27:46.180Z,-68
2022-12-28T08:30:13.980Z,-68
2022-12-28T08:32:41.782Z,-68
2022-12-28T08:35:09.611Z,-68
2022-12-28T08:37:37.442Z,-68
2022-12-28T08:42:56.554Z,-68
2022-12-28T08:45:24.351Z,-68
2022-12-28T08:47:52.157Z,-68
2022-12-28T08:50:20.230Z,-67
2022-12-28T08:52:49.062Z,-68
2022-12-28T08:55:16.853Z,-67
2022-12-28T08:57:44.673Z,-68
2022-12-28T09:00:12.443Z,-67
2022-12-28T09:02:40.426Z,-68
2022-12-28T09:05:08.265Z,-68
2022-12-28T09:07:36.039Z,-68
2022-12-28T09:10:03.873Z,-68
2022-12-28T09:12:31.738Z,-69
2022-12-28T09:14:59.522Z,-69
2022-12-28T09:17:27.350Z,-68
2022-12-28T09:19:55.124Z,-69
2022-12-28T09:22:22.919Z,-69
2022-12-28T09:24:50.688Z,-70
2022-12-28T09:27:18.533Z,-68
2022-12-28T09:29:46.323Z,-69
2022-12-28T09:32:14.053Z,-69
2022-12-28T09:34:41.786Z,-69
2022-12-28T09:37:09.616Z,-69
2022-12-28T09:39:37.413Z,-69
2022-12-28T09:42:05.249Z,-70
2022-12-28T09:44:33.048Z,-68
2022-12-28T09:47:00.962Z,-69
2022-12-28T09:49:28.751Z,-69
2022-12-28T09:51:56.518Z,-69
2022-12-28T09:54:24.341Z,-69
2022-12-28T09:56:52.137Z,-70
2022-12-28T09:59:19.874Z,-69
2022-12-28T10:01:47.772Z,-69
2022-12-28T10:04:15.624Z,-69
2022-12-28T10:06:43.757Z,-69
2022-12-28T10:09:11.479Z,-69
2022-12-28T10:11:39.257Z,-69
2022-12-28T10:14:07.059Z,-69
2022-12-28T10:16:36.643Z,-69
2022-12-28T10:19:04.474Z,-71
2022-12-28T10:21:33.087Z,-69
2022-12-28T10:26:48.996Z,-69
2022-12-28T10:29:16.749Z,-71
2022-12-28T10:31:44.641Z,-68
2022-12-28T10:34:12.506Z,-69
2022-12-28T10:36:41.200Z,-70
2022-12-28T10:39:11.814Z,-68
2022-12-28T10:41:41.141Z,-68
2022-12-28T10:44:38.359Z,-68
2022-12-28T10:46:56.884Z,-68
2022-12-28T10:49:24.844Z,-68
2022-12-28T10:51:53.050Z,-68
2022-12-28T10:54:28.203Z,-69
2022-12-28T10:56:58.891Z,-69
2022-12-28T10:59:27.869Z,-69
2022-12-28T11:01:57.190Z,-68
2022-12-28T11:04:25.251Z,-68
2022-12-28T11:06:53.018Z,-68
2022-12-28T11:09:20.905Z,-68
2022-12-28T11:11:48.859Z,-69
2022-12-28T11:14:16.719Z,-69
2022-12-28T11:16:44.648Z,-69
2022-12-28T11:19:12.419Z,-70
2022-12-28T11:21:40.290Z,-68
2022-12-28T11:24:08.122Z,-68
2022-12-28T11:26:36.033Z,-69
2022-12-28T11:29:03.921Z,-68
2022-12-28T11:31:31.779Z,-68
2022-12-28T11:33:59.593Z,-69
2022-12-28T11:36:27.422Z,-69
2022-12-28T11:38:55.198Z,-71
2022-12-28T11:41:23.041Z,-68
2022-12-28T11:43:50.768Z,-69
2022-12-28T11:46:18.547Z,-69
2022-12-28T11:48:46.359Z,-68
2022-12-28T11:51:14.121Z,-70
2022-12-28T11:53:41.953Z,-69
2022-12-28T11:56:09.766Z,-70
2022-12-28T11:58:37.522Z,-68
2022-12-28T12:01:05.320Z,-68
2022-12-28T12:03:33.126Z,-69
2022-12-28T12:06:00.881Z,-68
2022-12-28T12:08:28.660Z,-68
2022-12-28T12:10:56.449Z,-68
2022-12-28T12:13:24.231Z,-68
2022-12-28T12:15:52.006Z,-66
2022-12-28T12:18:20.061Z,-66
2022-12-28T12:20:47.834Z,-66
2022-12-28T12:23:15.693Z,-66
2022-12-28T12:25:43.472Z,-66
2022-12-28T12:28:11.186Z,-66
2022-12-28T12:30:39.000Z,-66
2022-12-28T12:33:06.817Z,-67
2022-12-28T12:35:34.617Z,-66
2022-12-28T12:38:02.413Z,-66
2022-12-28T12:40:30.203Z,-66
2022-12-28T12:42:58.031Z,-66
2022-12-28T12:45:25.839Z,-66
2022-12-28T12:47:53.657Z,-66
2022-12-28T12:50:21.503Z,-66
2022-12-28T12:52:49.237Z,-66
2022-12-28T12:55:17.174Z,-66
2022-12-28T12:57:45.004Z,-66
2022-12-28T13:00:12.993Z,-66
2022-12-28T13:02:40.864Z,-66
2022-12-28T13:05:08.720Z,-66
2022-12-28T13:07:36.726Z,-66
2022-12-28T13:10:04.512Z,-66
2022-12-28T13:12:32.259Z,-66
2022-12-28T13:15:00.037Z,-66
2022-12-28T13:17:27.820Z,-66
2022-12-28T13:19:55.577Z,-66
2022-12-28T13:22:23.380Z,-66
2022-12-28T13:24:51.151Z,-66
2022-12-28T13:27:18.930Z,-66
2022-12-28T13:29:46.680Z,-66
2022-12-28T13:32:14.626Z,-66
2022-12-28T13:34:42.398Z,-66
2022-12-28T13:37:10.285Z,-65
2022-12-28T13:39:42.176Z,-65
2022-12-28T13:42:10.529Z,-66
2022-12-28T13:44:38.497Z,-66
2022-12-28T13:47:06.217Z,-65
2022-12-28T13:49:34.003Z,-66
2022-12-28T13:52:01.862Z,-66
2022-12-28T13:54:29.654Z,-66
2022-12-28T13:57:14.779Z,-66
2022-12-28T13:59:45.132Z,-65
2022-12-28T14:02:13.071Z,-66
2022-12-28T14:04:56.479Z,-66
2022-12-28T14:07:24.704Z,-66
2022-12-28T14:09:52.518Z,-66
2022-12-28T14:12:20.426Z,-66
2022-12-28T14:14:48.174Z,-66
2022-12-28T14:17:15.989Z,-66
2022-12-28T14:19:47.754Z,-66
2022-12-28T14:22:16.663Z,-66
2022-12-28T14:24:44.432Z,-66
2022-12-28T14:27:12.219Z,-65
2022-12-28T14:29:40.109Z,-66
2022-12-28T14:32:08.386Z,-65
2022-12-28T14:34:36.148Z,-66
2022-12-28T14:37:03.979Z,-66
2022-12-28T14:39:31.754Z,-65
2022-12-28T14:41:59.497Z,-66
2022-12-28T14:44:27.292Z,-66
2022-12-28T14:46:55.871Z,-66
2022-12-28T14:49:23.705Z,-66
2022-12-28T14:51:51.579Z,-66
2022-12-28T14:54:19.400Z,-67
2022-12-28T14:56:47.228Z,-67
2022-12-28T14:59:15.259Z,-67
2022-12-28T15:01:43.188Z,-67
2022-12-28T15:04:11.097Z,-67
2022-12-28T15:06:38.890Z,-67
2022-12-28T15:09:08.496Z,-67
2022-12-28T15:11:36.348Z,-67
2022-12-28T15:14:04.123Z,-67
2022-12-28T15:16:32.143Z,-67
2022-12-28T15:19:00.053Z,-67
2022-12-28T15:21:27.895Z,-67
2022-12-28T15:23:55.868Z,-67
2022-12-28T15:26:23.741Z,-67
2022-12-28T15:28:51.554Z,-67
2022-12-28T15:31:19.368Z,-67
2022-12-28T15:33:47.331Z,-66
2022-12-28T15:36:17.644Z,-67
2022-12-28T15:38:45.891Z,-67
2022-12-28T15:41:27.629Z,-67
2022-12-28T15:43:55.483Z,-66
2022-12-28T15:46:23.260Z,-66
2022-12-28T15:48:51.267Z,-66
2022-12-28T15:51:19.040Z,-67
2022-12-28T15:53:46.896Z,-67
2022-12-28T15:56:14.740Z,-66
2022-12-28T15:58:42.455Z,-66
2022-12-28T16:01:10.469Z,-66
2022-12-28T16:03:38.340Z,-66
2022-12-28T16:06:06.133Z,-66
2022-12-28T16:08:34.130Z,-66
2022-12-28T16:11:01.919Z,-66
2022-12-28T16:13:29.902Z,-66
2022-12-28T16:15:57.832Z,-66
2022-12-28T16:18:25.753Z,-66
2022-12-28T16:20:53.526Z,-66
2022-12-28T16:23:21.307Z,-67
2022-12-28T16:25:49.107Z,-66
2022-12-28T16:28:16.891Z,-67
2022-12-28T16:30:44.670Z,-66
2022-12-28T16:33:12.600Z,-67
2022-12-28T16:35:40.402Z,-67
2022-12-28T16:38:08.295Z,-66
2022-12-28T16:40:36.287Z,-66
2022-12-28T16:43:04.460Z,-66
2022-12-28T16:45:32.305Z,-66
2022-12-28T16:48:00.101Z,-67
2022-12-28T16:50:28.305Z,-66
2022-12-28T16:53:00.935Z,-66
2022-12-28T16:55:28.691Z,-66
2022-12-28T16:57:56.438Z,-66
2022-12-28T17:00:24.354Z,-66
2022-12-28T17:02:52.241Z,-66
2022-12-28T17:05:19.996Z,-67
2022-12-28T17:07:47.780Z,-67
2022-12-28T17:10:15.676Z,-66
2022-12-28T17:12:43.519Z,-66
2022-12-28T17:15:11.341Z,-66
2022-12-28T17:17:39.060Z,-66
2022-12-28T17:20:07.260Z,-66
2022-12-28T17:22:35.161Z,-66
2022-12-28T17:25:02.988Z,-66
2022-12-28T17:27:30.778Z,-66
2022-12-28T17:29:58.655Z,-66
2022-12-28T17:32:26.458Z,-66
2022-12-28T17:34:54.256Z,-66
2022-12-28T17:37:21.966Z,-66
2022-12-28T17:39:49.722Z,-66
2022-12-28T17:42:17.478Z,-66
2022-12-28T17:44:48.569Z,-67
2022-12-28T17:47:16.489Z,-66
2022-12-28T17:49:44.233Z,-68
2022-12-28T17:52:13.634Z,-66
2022-12-28T17:54:41.430Z,-66
2022-12-28T17:57:09.940Z,-66
2022-12-28T17:59:37.909Z,-66
2022-12-28T18:02:09.942Z,-66
2022-12-28T18:04:37.997Z,-67
2022-12-28T18:07:05.776Z,-67
2022-12-28T18:09:33.618Z,-66
2022-12-28T18:12:01.425Z,-66
2022-12-28T18:14:29.216Z,-67
2022-12-28T18:16:57.285Z,-67
2022-12-28T18:19:25.525Z,-68
2022-12-28T18:21:53.419Z,-67
2022-12-28T18:24:22.117Z,-67
2022-12-28T18:26:51.986Z,-67
2022-12-28T18:29:19.894Z,-68
2022-12-28T18:31:47.946Z,-67
2022-12-28T18:34:16.040Z,-67
2022-12-28T18:36:44.153Z,-67
2022-12-28T18:39:12.112Z,-68
2022-12-28T18:41:39.898Z,-67
2022-12-28T18:44:08.291Z,-67
2022-12-28T18:46:36.354Z,-67
2022-12-28T18:49:04.585Z,-72
2022-12-28T18:51:32.386Z,-71
2022-12-28T18:54:00.204Z,-67
2022-12-28T18:56:28.018Z,-67
2022-12-28T18:58:55.828Z,-67
2022-12-28T19:04:11.810Z,-67
2022-12-28T19:06:39.932Z,-68
2022-12-28T19:09:07.976Z,-68
2022-12-28T19:11:36.040Z,-68
2022-12-28T19:14:03.899Z,-68
2022-12-28T19:16:32.410Z,-66
2022-12-28T19:19:00.297Z,-66
2022-12-28T19:21:28.260Z,-66
2022-12-28T19:23:56.106Z,-66
2022-12-28T19:26:23.843Z,-66
2022-12-28T19:28:51.712Z,-65
2022-12-28T19:31:19.524Z,-65
2022-12-28T19:33:47.376Z,-66
2022-12-28T19:36:15.305Z,-65
2022-12-28T19:38:43.104Z,-65
2022-12-28T19:41:10.968Z,-65
2022-12-28T19:43:38.784Z,-65
2022-12-28T19:46:07.238Z,-66
2022-12-28T19:48:35.077Z,-65
2022-12-28T19:51:02.917Z,-65
2022-12-28T19:53:30.683Z,-65
2022-12-28T19:55:58.553Z,-65
2022-12-28T19:58:26.636Z,-65
2022-12-28T20:00:54.412Z,-65
2022-12-28T20:03:22.404Z,-65
2022-12-28T20:05:50.244Z,-66
2022-12-28T20:08:18.008Z,-65
2022-12-28T20:10:45.845Z,-65
2022-12-28T20:13:13.608Z,-65
2022-12-28T20:15:41.598Z,-65
2022-12-28T20:18:09.374Z,-65
2022-12-28T20:21:09.276Z,-65
2022-12-28T20:23:24.920Z,-67
2022-12-28T20:25:52.743Z,-65
2022-12-28T20:28:20.570Z,-65
2022-12-28T20:30:48.477Z,-65
2022-12-28T20:33:16.430Z,-65
2022-12-28T20:35:45.862Z,-65
2022-12-28T20:38:13.608Z,-65
2022-12-28T20:40:41.486Z,-65
2022-12-28T20:43:23.622Z,-65
2022-12-28T20:45:54.323Z,-65
2022-12-28T20:48:22.680Z,-65
2022-12-28T20:50:50.466Z,-65
2022-12-28T20:53:18.238Z,-65
2022-12-28T20:55:46.129Z,-65
2022-12-28T20:58:13.949Z,-65
2022-12-28T21:00:41.750Z,-65
2022-12-28T21:03:09.697Z,-65
2022-12-28T21:05:37.453Z,-65
2022-12-28T21:08:05.301Z,-65
2022-12-28T21:10:33.046Z,-65
2022-12-28T21:13:00.760Z,-65
2022-12-28T21:15:28.532Z,-65
2022-12-28T21:17:57.241Z,-66
2022-12-28T21:20:26.625Z,-66
2022-12-28T21:22:54.563Z,-66
2022-12-28T21:25:22.278Z,-66
2022-12-28T21:27:50.066Z,-66
2022-12-28T21:30:17.989Z,-67
2022-12-28T21:32:45.842Z,-68
2022-12-28T21:35:13.666Z,-68
2022-12-28T21:37:41.441Z,-68
2022-12-28T21:40:09.273Z,-68
2022-12-28T21:42:37.035Z,-68
2022-12-28T21:45:04.786Z,-68
2022-12-28T21:47:32.612Z,-68
2022-12-28T21:50:00.368Z,-68
2022-12-28T21:52:28.208Z,-68
2022-12-28T21:54:56.019Z,-68
2022-12-28T21:57:23.776Z,-68
2022-12-28T21:59:52.338Z,-68
2022-12-28T22:02:37.508Z,-68
2022-12-28T22:05:22.922Z,-68
2022-12-28T22:08:10.723Z,-68
2022-12-28T22:10:56.580Z,-68
2022-12-28T22:13:24.661Z,-68
2022-12-28T22:15:52.452Z,-68
2022-12-28T22:18:37.134Z,-68
2022-12-28T22:21:08.130Z,-68
2022-12-28T22:23:35.863Z,-68
2022-12-28T22:26:03.633Z,-68
2022-12-28T22:28:31.400Z,-68
2022-12-28T22:30:59.262Z,-68
2022-12-28T22:33:27.105Z,-68
2022-12-28T22:35:55.010Z,-68
2022-12-28T22:38:22.736Z,-68
2022-12-28T22:40:50.477Z,-68
2022-12-28T22:43:18.316Z,-68
2022-12-28T22:45:46.139Z,-68
2022-12-28T22:48:13.912Z,-68
2022-12-28T22:50:43.355Z,-68
2022-12-28T22:53:11.240Z,-68
2022-12-28T22:55:39.156Z,-68
2022-12-28T22:58:06.940Z,-68
2022-12-28T23:00:34.681Z,-68
2022-12-28T23:03:02.586Z,-68
2022-12-28T23:05:30.351Z,-68
2022-12-28T23:07:58.136Z,-68
2022-12-28T23:10:26.009Z,-68
2022-12-28T23:12:53.910Z,-68
2022-12-28T23:15:21.686Z,-68
2022-12-28T23:17:49.448Z,-68
2022-12-28T23:20:34.188Z,-68
2022-12-28T23:23:19.533Z,-68
2022-12-28T23:26:04.734Z,-68
2022-12-28T23:28:32.521Z,-68
2022-12-28T23:31:00.522Z,-68
2022-12-28T23:33:28.407Z,-68
2022-12-28T23:35:56.166Z,-68
2022-12-28T23:38:23.988Z,-68
2022-12-28T23:41:11.844Z,-68
2022-12-28T23:43:39.597Z,-68
2022-12-28T23:46:07.593Z,-68
2022-12-28T23:48:35.498Z,-68
2022-12-28T23:51:08.510Z,-68
2022-12-28T23:53:36.566Z,-68
2022-12-28T23:56:04.317Z,-68
2022-12-28T23:58:32.180Z,-68
